Novy Urengoy, Russia
Current Conditions -  °F | °C
As of 3:30 AM on Monday 24 Nov 2014 (Local Time) from USRR Reporting Station
Few Clouds Few Clouds  
Wind Chill: -41°   Ceiling: Unl
Heat Index: -24°   Visibility: 4mi
Dew Point: -29°   Wind: 7mph
Humidity: 76%   Direction: 280°W
Pressure: 30.09"   Gusts: NA
Location:  65.48°N, 76.52°E
Report Text: USRR 232230Z 28003MPS 7000 FEW220 M31/M34 Q1019 NOSIG RMKQFE759 25////45
Loading
Personal Weather Stations






























Interactive Weather Map New forecast layout! Learn more

10-Day Weather Forecast

Advertisements
Track Severe Weather on mobile